createdAt,value
2018-12-30T00:00:11.618Z,17.83
2018-12-30T00:03:27.606Z,16.90
2018-12-30T00:06:10.861Z,17.67
2018-12-30T00:08:54.257Z,16.33
2018-12-30T00:12:15.567Z,18.17
2018-12-30T00:15:15.179Z,16.63
2018-12-30T00:18:15.411Z,16.33
2018-12-30T00:21:44.709Z,17.67
2018-12-30T00:30:26.843Z,15.77
2018-12-30T00:51:50.441Z,17.40
2018-12-30T00:54:33.451Z,16.30
2018-12-30T00:57:25.275Z,16.53
2018-12-30T01:00:07.068Z,18.53
2018-12-30T01:02:58.486Z,19.37
2018-12-30T01:05:39.864Z,18.63
2018-12-30T01:12:12.481Z,17.83
2018-12-30T01:20:51.441Z,17.97
2018-12-30T01:23:29.146Z,17.63
2018-12-30T01:26:15.922Z,18.50
2018-12-30T01:29:03.359Z,17.93
2018-12-30T01:31:46.176Z,19.23
2018-12-30T01:37:52.571Z,19.97
2018-12-30T01:40:44.221Z,17.87
2018-12-30T01:43:33.359Z,17.90
2018-12-30T01:46:17.862Z,17.83
2018-12-30T01:48:57.853Z,17.10
2018-12-30T01:51:57.467Z,18.27
2018-12-30T01:57:35.079Z,19.17
2018-12-30T02:00:28.860Z,18.87
2018-12-30T02:03:04.861Z,19.70
2018-12-30T02:05:46.394Z,19.53
2018-12-30T02:08:26.553Z,20.20
2018-12-30T02:11:02.405Z,19.27
2018-12-30T02:13:38.249Z,19.87
2018-12-30T02:16:29.664Z,19.47
2018-12-30T02:19:05.319Z,20.20
2018-12-30T02:21:41.577Z,19.90
2018-12-30T02:24:17.439Z,17.87
2018-12-30T02:27:14.383Z,19.87
2018-12-30T02:29:52.688Z,19.13
2018-12-30T02:32:41.456Z,15.63
2018-12-30T02:35:40.170Z,14.97
2018-12-30T02:38:16.863Z,15.93
2018-12-30T02:40:55.623Z,13.57
2018-12-30T02:43:35.576Z,12.77
2018-12-30T02:49:12.064Z,11.70
2018-12-30T02:55:35.650Z,14.67
2018-12-30T02:58:17.443Z,18.30
2018-12-30T03:00:59.446Z,17.50
2018-12-30T03:03:41.234Z,17.37
2018-12-30T03:06:24.253Z,14.40
2018-12-30T03:09:04.816Z,12.20
2018-12-30T03:11:43.331Z,11.97
2018-12-30T03:14:26.558Z,12.33
2018-12-30T03:17:06.104Z,12.43
2018-12-30T03:19:46.852Z,11.83
2018-12-30T03:22:34.606Z,12.33
2018-12-30T03:25:10.452Z,13.50
2018-12-30T03:27:48.879Z,11.90
2018-12-30T03:30:27.882Z,11.70
2018-12-30T03:33:16.443Z,11.50
2018-12-30T03:35:52.496Z,10.67
2018-12-30T03:42:52.543Z,11.07
2018-12-30T03:46:02.405Z,11.37
2018-12-30T03:48:46.450Z,12.10
2018-12-30T03:51:28.871Z,11.30
2018-12-30T03:54:16.170Z,12.13
2018-12-30T03:56:52.423Z,12.33
2018-12-30T04:02:53.291Z,11.70
2018-12-30T04:08:57.884Z,12.00
2018-12-30T04:11:35.522Z,12.10
2018-12-30T04:14:13.419Z,12.13
2018-12-30T04:16:55.829Z,11.23
2018-12-30T04:19:40.694Z,12.50
2018-12-30T04:22:18.593Z,12.27
2018-12-30T04:25:01.414Z,11.67
2018-12-30T04:27:37.265Z,11.57
2018-12-30T04:30:26.991Z,11.03
2018-12-30T04:36:24.434Z,11.23
2018-12-30T04:39:03.900Z,11.70
2018-12-30T04:45:32.460Z,11.33
2018-12-30T04:51:53.795Z,11.23
2018-12-30T04:54:36.418Z,12.23
2018-12-30T04:57:20.465Z,10.80
2018-12-30T05:00:01.898Z,11.37
2018-12-30T05:02:39.331Z,11.37
2018-12-30T05:05:19.685Z,11.87
2018-12-30T05:08:06.976Z,11.37
2018-12-30T05:10:53.723Z,11.47
2018-12-30T05:13:42.473Z,10.90
2018-12-30T05:16:30.409Z,11.53
2018-12-30T05:19:37.797Z,11.03
2018-12-30T05:22:17.562Z,11.13
2018-12-30T05:28:26.385Z,11.30
2018-12-30T05:31:08.383Z,11.10
2018-12-30T05:33:48.034Z,11.37
2018-12-30T05:36:26.652Z,11.60
2018-12-30T05:39:11.505Z,11.83
2018-12-30T05:41:49.911Z,11.90
2018-12-30T05:48:14.433Z,12.03
2018-12-30T05:51:22.435Z,12.47
2018-12-30T05:53:57.917Z,12.77
2018-12-30T06:00:07.336Z,12.37
2018-12-30T06:02:44.212Z,11.63
2018-12-30T06:05:20.513Z,12.93
2018-12-30T06:07:59.408Z,13.03
2018-12-30T06:10:53.935Z,13.40
2018-12-30T06:13:42.459Z,10.13
2018-12-30T06:19:58.255Z,11.30
2018-12-30T06:22:33.932Z,10.70
2018-12-30T06:25:14.937Z,11.53
2018-12-30T06:28:03.432Z,10.90
2018-12-30T06:30:42.352Z,10.67
2018-12-30T06:33:24.559Z,9.50
2018-12-30T06:36:04.390Z,10.37
2018-12-30T06:38:42.598Z,9.30
2018-12-30T06:41:27.462Z,10.10
2018-12-30T06:44:06.797Z,10.33
2018-12-30T06:46:41.839Z,10.60
2018-12-30T06:49:18.514Z,10.07
2018-12-30T06:52:00.956Z,10.43
2018-12-30T06:54:47.940Z,10.10
2018-12-30T06:57:24.933Z,9.73
2018-12-30T07:03:01.930Z,10.33
2018-12-30T07:05:48.505Z,9.20
2018-12-30T07:08:45.941Z,10.73
2018-12-30T07:28:58.482Z,13.17
2018-12-30T07:31:40.929Z,12.77
2018-12-30T07:37:50.143Z,13.83
2018-12-30T07:40:25.396Z,13.70
2018-12-30T07:43:00.412Z,13.57
2018-12-30T07:49:10.294Z,11.57
2018-12-30T07:51:53.521Z,12.33
2018-12-30T07:54:50.466Z,12.87
2018-12-30T08:01:00.535Z,11.90
2018-12-30T08:04:27.377Z,13.17
2018-12-30T08:10:58.141Z,11.87
2018-12-30T08:13:39.517Z,11.47
2018-12-30T08:19:44.485Z,12.23
2018-12-30T08:26:12.459Z,11.37
2018-12-30T08:32:15.268Z,11.60
2018-12-30T08:34:52.349Z,12.33
2018-12-30T08:40:55.945Z,11.10
2018-12-30T08:43:48.519Z,11.87
2018-12-30T08:46:31.742Z,12.47
2018-12-30T08:52:52.256Z,12.80
2018-12-30T08:55:34.256Z,11.60
2018-12-30T09:01:42.487Z,12.37
2018-12-30T09:08:09.068Z,12.53
2018-12-30T09:14:21.448Z,12.23
2018-12-30T09:17:02.962Z,14.57
2018-12-30T09:19:43.427Z,14.03
2018-12-30T09:22:33.402Z,13.30
2018-12-30T09:29:20.547Z,13.43
2018-12-30T09:31:57.636Z,12.03
2018-12-30T09:34:34.300Z,14.10
2018-12-30T09:37:22.647Z,14.60
2018-12-30T09:43:48.502Z,13.47
2018-12-30T09:46:33.361Z,13.80
2018-12-30T09:49:14.528Z,13.97
2018-12-30T09:51:50.383Z,14.67
2018-12-30T09:54:32.983Z,14.80
2018-12-30T09:57:14.580Z,14.37
2018-12-30T09:59:50.976Z,13.53
2018-12-30T10:02:37.761Z,14.23
2018-12-30T10:05:39.534Z,14.30
2018-12-30T10:08:19.781Z,14.53
2018-12-30T10:17:26.587Z,14.63
2018-12-30T10:20:07.329Z,14.40
2018-12-30T10:26:27.460Z,14.97
2018-12-30T10:29:24.215Z,14.30
2018-12-30T10:35:24.463Z,13.07
2018-12-30T10:41:34.949Z,13.17
2018-12-30T10:44:44.948Z,12.27
2018-12-30T10:47:37.235Z,13.07
2018-12-30T10:50:25.364Z,13.43
2018-12-30T10:59:28.984Z,13.03
2018-12-30T11:02:23.207Z,12.63
2018-12-30T11:12:32.271Z,12.93
2018-12-30T11:41:37.471Z,11.13
2018-12-30T11:44:20.009Z,11.90
2018-12-30T11:50:24.014Z,10.87
2018-12-30T11:56:44.424Z,11.00
2018-12-30T11:59:29.903Z,12.57
2018-12-30T12:02:14.357Z,12.13
2018-12-30T12:04:53.691Z,11.90
2018-12-30T12:07:37.325Z,11.63
2018-12-30T12:10:12.764Z,12.23
2018-12-30T12:12:50.458Z,11.50
2018-12-30T12:15:32.464Z,12.50
2018-12-30T12:18:10.367Z,12.73
2018-12-30T12:20:48.669Z,11.63
2018-12-30T12:23:23.533Z,10.97
2018-12-30T12:29:24.012Z,11.40
2018-12-30T12:32:01.644Z,12.23
2018-12-30T12:34:51.627Z,12.27
2018-12-30T12:37:32.047Z,12.93
2018-12-30T12:43:58.646Z,13.63
2018-12-30T12:46:34.309Z,12.83
2018-12-30T12:52:51.332Z,14.30
2018-12-30T12:58:51.574Z,13.10
2018-12-30T13:01:29.883Z,13.63
2018-12-30T13:04:19.467Z,13.33
2018-12-30T13:07:21.324Z,13.70
2018-12-30T13:10:05.569Z,14.93
2018-12-30T13:12:54.735Z,13.97
2018-12-30T13:15:41.182Z,13.80
2018-12-30T13:18:20.579Z,14.63
2018-12-30T13:21:00.527Z,15.47
2018-12-30T13:23:44.579Z,16.03
2018-12-30T13:26:27.223Z,14.13
2018-12-30T13:29:03.434Z,15.20
2018-12-30T13:31:45.442Z,14.07
2018-12-30T13:34:20.892Z,14.77
2018-12-30T13:43:57.799Z,17.73
2018-12-30T13:46:37.334Z,16.87
2018-12-30T13:49:34.696Z,16.17
2018-12-30T13:56:00.040Z,17.77
2018-12-30T14:12:22.346Z,15.27
2018-12-30T14:15:08.145Z,15.13
2018-12-30T14:18:05.106Z,18.20
2018-12-30T14:21:14.837Z,15.20
2018-12-30T14:24:00.713Z,13.93
2018-12-30T14:26:43.543Z,15.60
2018-12-30T14:32:38.255Z,15.23
2018-12-30T14:39:09.847Z,14.70
2018-12-30T14:42:01.861Z,14.30
2018-12-30T14:44:58.392Z,15.47
2018-12-30T14:47:42.437Z,13.63
2018-12-30T14:50:28.047Z,13.93
2018-12-30T14:53:04.582Z,15.27
2018-12-30T14:55:47.609Z,14.13
2018-12-30T14:58:31.076Z,15.10
2018-12-30T15:01:15.418Z,14.40
2018-12-30T15:03:51.558Z,13.20
2018-12-30T15:06:31.044Z,12.10
2018-12-30T15:09:09.608Z,12.77
2018-12-30T15:11:54.474Z,12.33
2018-12-30T15:14:37.690Z,12.53
2018-12-30T15:17:17.056Z,14.10
2018-12-30T15:19:59.639Z,13.30
2018-12-30T15:22:36.716Z,13.53
2018-12-30T15:25:16.666Z,15.03
2018-12-30T15:28:18.062Z,14.83
2018-12-30T15:30:55.610Z,14.93
2018-12-30T15:36:36.057Z,16.27
2018-12-30T15:39:21.683Z,14.20
2018-12-30T15:45:32.563Z,15.87
2018-12-30T15:48:18.874Z,14.43
2018-12-30T15:50:58.929Z,15.10
2018-12-30T15:57:12.784Z,14.47
2018-12-30T16:00:13.823Z,14.23
2018-12-30T16:03:00.528Z,14.23
2018-12-30T16:05:43.553Z,14.67
2018-12-30T16:08:33.626Z,14.27
2018-12-30T16:11:12.082Z,15.27
2018-12-30T16:13:58.818Z,15.50
2018-12-30T16:16:36.859Z,14.63
2018-12-30T16:19:17.047Z,15.00
2018-12-30T16:28:32.847Z,14.00
2018-12-30T16:31:14.636Z,14.23
2018-12-30T16:33:56.056Z,15.23
2018-12-30T16:40:01.581Z,14.43
2018-12-30T16:42:47.675Z,14.50
2018-12-30T16:49:13.527Z,14.13
2018-12-30T16:55:52.467Z,15.43
2018-12-30T16:58:30.575Z,15.57
2018-12-30T17:04:45.561Z,13.97
2018-12-30T17:10:57.697Z,13.77
2018-12-30T17:13:46.852Z,14.50
2018-12-30T17:20:20.478Z,14.80
2018-12-30T17:26:22.764Z,15.47
2018-12-30T17:29:02.920Z,17.10
2018-12-30T17:31:45.524Z,16.90
2018-12-30T17:34:35.223Z,20.13
2018-12-30T17:37:21.607Z,19.43
2018-12-30T17:39:58.494Z,18.93
2018-12-30T17:46:04.663Z,17.77
2018-12-30T17:52:25.591Z,19.23
2018-12-30T17:58:42.061Z,14.97
2018-12-30T18:01:39.593Z,15.00
2018-12-30T18:04:37.753Z,15.23
2018-12-30T18:07:18.069Z,12.87
2018-12-30T18:13:40.100Z,12.50
2018-12-30T18:16:20.068Z,13.10
2018-12-30T18:19:05.286Z,11.47
2018-12-30T18:21:51.582Z,11.53
2018-12-30T18:28:24.597Z,12.53
2018-12-30T18:34:37.330Z,10.27
2018-12-30T18:37:20.554Z,10.47
2018-12-30T18:39:58.658Z,11.33
2018-12-30T18:42:58.679Z,11.97
2018-12-30T18:49:34.758Z,13.00
2018-12-30T18:52:14.073Z,12.97
2018-12-30T18:54:55.480Z,12.43
2018-12-30T19:01:13.950Z,15.13
2018-12-30T19:04:04.751Z,13.77
2018-12-30T19:13:11.773Z,15.03
2018-12-30T19:16:06.885Z,17.53
2018-12-30T19:18:48.305Z,13.93
2018-12-30T19:40:30.603Z,18.07
2018-12-30T19:49:47.637Z,15.33
2018-12-30T19:52:26.092Z,16.07
2018-12-30T19:55:20.647Z,15.60
2018-12-30T19:58:10.010Z,14.77
2018-12-30T20:01:00.469Z,15.27
2018-12-30T20:03:50.600Z,15.23
2018-12-30T20:06:36.584Z,13.50
2018-12-30T20:16:17.713Z,14.57
2018-12-30T20:19:38.622Z,13.90
2018-12-30T20:28:48.730Z,15.07
2018-12-30T20:35:09.638Z,15.47
2018-12-30T20:38:04.746Z,15.80
2018-12-30T20:44:20.110Z,14.70
2018-12-30T20:50:45.584Z,14.77
2018-12-30T20:57:25.474Z,15.07
2018-12-30T21:00:03.097Z,15.80
2018-12-30T21:06:15.101Z,16.20
2018-12-30T21:09:01.660Z,16.03
2018-12-30T21:11:44.100Z,15.67
2018-12-30T21:17:09.695Z,15.43
2018-12-30T21:20:13.609Z,14.10
2018-12-30T21:26:20.933Z,14.20
2018-12-30T21:29:04.444Z,14.40
2018-12-30T21:31:42.758Z,15.47
2018-12-30T21:37:46.483Z,13.63
2018-12-30T21:43:58.402Z,16.67
2018-12-30T21:52:55.095Z,14.00
2018-12-30T22:02:24.739Z,13.50
2018-12-30T22:08:27.456Z,13.47
2018-12-30T22:14:33.403Z,12.97
2018-12-30T22:17:24.645Z,12.43
2018-12-30T22:20:19.719Z,12.70
2018-12-30T22:23:15.648Z,13.17
2018-12-30T22:26:14.624Z,12.63
2018-12-30T22:28:58.692Z,12.40
2018-12-30T22:35:03.103Z,13.83
2018-12-30T22:37:39.710Z,13.43
2018-12-30T22:40:20.060Z,12.73
2018-12-30T22:42:59.800Z,14.33
2018-12-30T22:45:42.825Z,13.37
2018-12-30T22:48:46.728Z,14.20
2018-12-30T22:51:28.102Z,12.90
2018-12-30T22:54:04.780Z,12.70
2018-12-30T22:56:42.484Z,13.27
2018-12-30T22:59:17.305Z,13.53
2018-12-30T23:02:01.967Z,13.53
2018-12-30T23:04:46.014Z,13.43
2018-12-30T23:13:44.106Z,12.53
2018-12-30T23:16:22.950Z,13.50
2018-12-30T23:19:07.618Z,12.70
2018-12-30T23:22:01.691Z,13.63
2018-12-30T23:24:41.424Z,10.83
2018-12-30T23:27:24.650Z,11.53
2018-12-30T23:30:09.924Z,11.07
2018-12-30T23:32:52.739Z,11.10
2018-12-30T23:35:50.715Z,10.37
2018-12-30T23:38:37.627Z,10.70
2018-12-30T23:41:20.718Z,11.27
2018-12-30T23:43:56.704Z,12.67
2018-12-30T23:46:43.410Z,11.17
2018-12-30T23:49:28.391Z,11.30
2018-12-30T23:55:23.404Z,12.70
